Coffman Cove, AK

5:26 PM AKDT op 25 mei 2015 (GMT -0800)
Ketchikan International | | Change Station
CLOSE
Current Station
Luchthaven
Location: Ketchikan,
Geometrische hoogte: 95 ft
Nabije weerstations

Hoogte 95 ft 55.36 °N, 131.71 °W | Updated 33 minutes ago

Clear
Helder
67 °F
Voelt als 67 °F
N
9
Wind Variabel Wind van NNW

Vandaag
Hoog -- | Laag -- °F
--% Kans op neerslag
Gisteren
Hoog -- | Laag -- °F
Precip. -- inches
4:21 AM 9:07 PM
Eerste kwartier, 53% visible
Druk 30.04 inches
Zicht 10.0 mijlen
Wolken Helder
Dauwpunt 48 °F
Vochtigheid 51%
Neerslag 0.00 inches
Dikte sneeuw Niet beschikbaar.
UV 3 van de 12
Pollen Niet beschikbaar.
Luchtkwaliteit Niet beschikbaar.
Flu Activity Local Activity
METAR PAKT 260053Z 34008KT 10SM CLR 19/09 A3003 RMK AO2 SLP171 T01940089

More Conditions Fewer Conditions

Druk 30.04 inches
Zicht 10.0 mijlen
Wolken Helder
Dauwpunt 48 °F
Vochtigheid 51%
Neerslag 0.00 inches
Dikte sneeuw Niet beschikbaar.
UV 3 van de 12
Pollen Niet beschikbaar.
Luchtkwaliteit Niet beschikbaar.
Flu Activity Local Activity
METAR PAKT 260053Z 34008KT 10SM CLR 19/09 A3003 RMK AO2 SLP171 T01940089

More Conditions Fewer Conditions

10-Day Weather Forecast

Almanac

Astronomie

May. 25, 2015 Opkomst Ondergang
Werkelijke tijd
Burgerlijke schemering
Nautische schemering
Astronomische schemering
Maan
Golflengte van het zichtbare licht
Daglengte
Tomorrow will be .
, % of the Moon is Illuminated

Extremen vandaag

State Highs State Lows

Community

WunderPhotos

Upload Photos

1,824,206 foto’s ge-upload!

WunderBlogs® & News

Nearby

Luchtkwaliteit

  Luchtkwaliteit LK-index Verontreinigende stof
Not available.

Dikte sneeuw

Station Depth Geometrische hoogte

Aardbevingen

Stad Distance Mag. Time & Date
Minimum magnitude displayed is 2.5.

Watertemperatuur langs de kust

Plaats Temperatuur

Stations

Nabije weerstations

Locatie station Temp. Gevoelstemperatuur Dauwpunt Vochtigheid Wind Precip. Hoogte Geactualiseerd Type